createdAt,value
2023-01-31T00:01:41.335Z,3.96
2023-01-31T00:04:12.546Z,4.00
2023-01-31T00:06:43.772Z,3.97
2023-01-31T00:09:13.000Z,4.05
2023-01-31T00:11:40.427Z,4.10
2023-01-31T00:14:10.608Z,4.01
2023-01-31T00:16:37.715Z,4.04
2023-01-31T00:19:04.890Z,4.01
2023-01-31T00:21:32.753Z,4.06
2023-01-31T00:24:00.959Z,4.12
2023-01-31T00:26:34.051Z,4.02
2023-01-31T00:29:04.608Z,4.10
2023-01-31T00:31:34.888Z,4.12
2023-01-31T00:34:02.288Z,4.19
2023-01-31T00:36:35.123Z,4.06
2023-01-31T00:39:04.793Z,4.10
2023-01-31T00:41:33.928Z,4.13
2023-01-31T00:44:01.429Z,4.09
2023-01-31T00:46:28.706Z,4.15
2023-01-31T00:48:56.806Z,4.11
2023-01-31T00:51:26.805Z,4.06
2023-01-31T00:53:54.367Z,4.17
2023-01-31T00:56:24.712Z,4.08
2023-01-31T00:58:53.122Z,4.12
2023-01-31T01:01:24.725Z,4.17
2023-01-31T01:03:52.609Z,4.05
2023-01-31T01:06:20.788Z,4.08
2023-01-31T01:08:48.213Z,4.15
2023-01-31T01:11:22.826Z,4.10
2023-01-31T01:13:50.859Z,4.17
2023-01-31T01:16:27.074Z,4.19
2023-01-31T01:18:57.334Z,4.23
2023-01-31T01:21:27.806Z,4.19
2023-01-31T01:23:59.420Z,4.22
2023-01-31T01:26:30.953Z,4.13
2023-01-31T01:29:00.603Z,4.17
2023-01-31T01:31:30.619Z,4.15
2023-01-31T01:34:06.015Z,4.23
2023-01-31T01:36:37.187Z,4.15
2023-01-31T01:39:07.262Z,4.29
2023-01-31T01:41:34.249Z,4.18
2023-01-31T01:44:04.788Z,4.06
2023-01-31T01:46:40.475Z,4.09
2023-01-31T01:49:28.858Z,4.05
2023-01-31T01:51:58.053Z,4.10
2023-01-31T01:54:35.048Z,4.19
2023-01-31T01:57:06.437Z,4.10
2023-01-31T01:59:40.804Z,4.12
2023-01-31T02:02:07.960Z,4.18
2023-01-31T02:04:39.330Z,4.13
2023-01-31T02:07:09.127Z,4.13
2023-01-31T02:10:27.523Z,4.15
2023-01-31T02:12:54.929Z,4.16
2023-01-31T02:15:22.960Z,4.18
2023-01-31T02:17:50.240Z,4.16
2023-01-31T02:20:58.393Z,4.23
2023-01-31T02:23:49.637Z,4.19
2023-01-31T02:26:35.601Z,4.20
2023-01-31T02:29:51.681Z,4.23
2023-01-31T02:32:55.917Z,4.29
2023-01-31T02:36:11.961Z,4.24
2023-01-31T02:38:41.587Z,4.22
2023-01-31T02:41:21.600Z,4.26
2023-01-31T02:44:22.496Z,4.19
2023-01-31T02:46:59.452Z,4.18
2023-01-31T02:50:00.022Z,4.25
2023-01-31T02:52:32.140Z,4.20
2023-01-31T02:56:08.775Z,4.26
2023-01-31T02:58:39.631Z,4.25
2023-01-31T03:01:10.864Z,4.32
2023-01-31T03:03:39.091Z,4.35
2023-01-31T03:06:29.776Z,4.42
2023-01-31T03:09:07.788Z,4.31
2023-01-31T03:12:06.385Z,4.29
2023-01-31T03:14:55.272Z,4.31
2023-01-31T03:17:44.825Z,4.33
2023-01-31T03:20:25.129Z,4.31
2023-01-31T03:23:01.604Z,4.39
2023-01-31T03:25:35.142Z,4.32
2023-01-31T03:28:09.258Z,4.33
2023-01-31T03:30:43.998Z,4.33
2023-01-31T03:33:44.396Z,4.30
2023-01-31T03:36:43.175Z,4.34
2023-01-31T03:39:42.416Z,4.45
2023-01-31T03:42:31.532Z,4.39
2023-01-31T03:45:15.845Z,4.37
2023-01-31T03:47:48.714Z,4.37
2023-01-31T03:50:39.679Z,4.42
2023-01-31T03:53:16.039Z,4.60
2023-01-31T03:55:55.775Z,4.46
2023-01-31T03:58:31.647Z,4.49
2023-01-31T04:01:02.455Z,4.42
2023-01-31T04:03:45.391Z,4.41
2023-01-31T04:06:13.436Z,4.58
2023-01-31T04:08:40.682Z,4.53
2023-01-31T04:11:13.287Z,4.47
2023-01-31T04:13:41.820Z,4.36
2023-01-31T04:16:09.028Z,4.35
2023-01-31T04:18:38.079Z,4.49
2023-01-31T04:21:05.953Z,4.39
2023-01-31T04:23:33.375Z,4.33
2023-01-31T04:26:00.466Z,4.46
2023-01-31T04:28:27.779Z,4.44
2023-01-31T04:30:56.642Z,4.47
2023-01-31T04:33:24.387Z,4.45
2023-01-31T04:35:52.227Z,4.38
2023-01-31T04:38:19.214Z,4.43
2023-01-31T04:40:46.387Z,4.38
2023-01-31T04:43:13.652Z,4.41
2023-01-31T04:45:41.528Z,4.36
2023-01-31T04:48:08.926Z,4.31
2023-01-31T04:50:36.580Z,4.34
2023-01-31T04:53:04.858Z,4.26
2023-01-31T04:55:32.018Z,4.23
2023-01-31T04:57:59.027Z,4.22
2023-01-31T05:00:27.559Z,4.20
2023-01-31T05:02:54.683Z,4.27
2023-01-31T05:05:22.029Z,4.27
2023-01-31T05:07:49.087Z,4.20
2023-01-31T05:10:16.286Z,4.20
2023-01-31T05:12:43.321Z,4.20
2023-01-31T05:15:11.790Z,4.13
2023-01-31T05:17:39.297Z,4.25
2023-01-31T05:20:07.243Z,4.25
2023-01-31T05:22:34.379Z,4.18
2023-01-31T05:25:01.483Z,4.33
2023-01-31T05:27:28.548Z,4.35
2023-01-31T05:29:55.800Z,4.41
2023-01-31T05:32:23.046Z,4.21
2023-01-31T05:34:50.023Z,4.30
2023-01-31T05:37:17.086Z,4.23
2023-01-31T05:39:44.089Z,4.35
2023-01-31T05:42:11.083Z,4.26
2023-01-31T05:44:38.056Z,4.29
2023-01-31T05:47:05.232Z,4.32
2023-01-31T05:49:33.602Z,4.42
2023-01-31T05:52:01.972Z,4.42
2023-01-31T05:54:29.408Z,4.29
2023-01-31T05:56:56.435Z,4.28
2023-01-31T05:59:23.580Z,4.31
2023-01-31T06:01:50.664Z,4.25
2023-01-31T06:04:17.739Z,4.26
2023-01-31T06:06:45.516Z,4.25
2023-01-31T06:09:12.660Z,4.23
2023-01-31T06:11:39.761Z,4.30
2023-01-31T06:14:06.847Z,4.24
2023-01-31T06:16:33.984Z,4.31
2023-01-31T06:19:01.980Z,4.32
2023-01-31T06:21:29.190Z,4.34
2023-01-31T06:23:56.299Z,4.30
2023-01-31T06:26:24.188Z,4.34
2023-01-31T06:28:51.313Z,4.33
2023-01-31T06:31:19.134Z,4.39
2023-01-31T06:33:47.940Z,4.41
2023-01-31T06:36:18.866Z,4.37
2023-01-31T06:38:53.897Z,4.42
2023-01-31T06:41:21.255Z,4.45
2023-01-31T06:43:48.758Z,4.47
2023-01-31T06:46:15.772Z,4.55
2023-01-31T06:48:43.937Z,4.54
2023-01-31T06:51:11.121Z,4.40
2023-01-31T06:53:38.156Z,4.49
2023-01-31T06:56:05.803Z,4.77
2023-01-31T06:58:33.866Z,4.75
2023-01-31T07:01:13.531Z,4.76
2023-01-31T07:03:41.374Z,4.69
2023-01-31T07:06:10.732Z,4.73
2023-01-31T07:08:37.825Z,4.69
2023-01-31T07:11:05.949Z,4.81
2023-01-31T07:13:33.610Z,4.78
2023-01-31T07:16:00.884Z,4.79
2023-01-31T07:18:28.277Z,4.85
2023-01-31T07:20:55.454Z,4.84
2023-01-31T07:23:23.165Z,4.84
2023-01-31T07:25:50.694Z,4.92
2023-01-31T07:28:18.037Z,4.99
2023-01-31T07:30:46.393Z,4.89
2023-01-31T07:33:13.646Z,4.85
2023-01-31T07:35:43.493Z,4.89
2023-01-31T07:38:11.539Z,4.92
2023-01-31T07:40:40.169Z,4.98
2023-01-31T07:43:07.358Z,4.95
2023-01-31T07:45:34.840Z,5.04
2023-01-31T07:48:02.210Z,5.15
2023-01-31T07:50:29.834Z,5.18
2023-01-31T07:52:59.261Z,5.21
2023-01-31T07:55:27.164Z,5.40
2023-01-31T07:57:54.261Z,5.52
2023-01-31T08:00:40.495Z,5.32
2023-01-31T08:03:33.854Z,5.37
2023-01-31T08:06:12.539Z,5.32
2023-01-31T08:08:42.503Z,5.38
2023-01-31T08:11:09.747Z,5.29
2023-01-31T08:13:38.760Z,5.36
2023-01-31T08:16:09.249Z,5.39
2023-01-31T08:18:38.153Z,5.49
2023-01-31T08:21:06.833Z,5.43
2023-01-31T08:23:34.832Z,5.30
2023-01-31T08:26:13.310Z,5.41
2023-01-31T08:28:41.077Z,5.52
2023-01-31T08:31:12.520Z,5.42
2023-01-31T08:33:39.603Z,5.58
2023-01-31T08:36:18.165Z,5.72
2023-01-31T08:38:45.720Z,5.58
2023-01-31T08:41:13.763Z,5.53
2023-01-31T08:43:54.800Z,5.77
2023-01-31T08:46:25.997Z,6.17
2023-01-31T08:48:53.213Z,6.24
2023-01-31T08:51:20.439Z,6.53
2023-01-31T08:53:47.887Z,6.50
2023-01-31T08:56:15.960Z,6.56
2023-01-31T08:58:44.743Z,6.44
2023-01-31T09:01:17.280Z,6.23
2023-01-31T09:03:45.672Z,6.30
2023-01-31T09:06:24.709Z,6.42
2023-01-31T09:08:51.958Z,6.36
2023-01-31T09:11:19.575Z,6.23
2023-01-31T09:13:51.494Z,6.31
2023-01-31T09:16:19.274Z,6.30
2023-01-31T09:18:46.319Z,6.11
2023-01-31T09:21:15.504Z,6.15
2023-01-31T09:23:43.403Z,6.17
2023-01-31T09:26:13.091Z,6.06
2023-01-31T09:28:43.831Z,6.13
2023-01-31T09:31:18.390Z,6.09
2023-01-31T09:33:45.513Z,6.10
2023-01-31T09:36:18.640Z,5.93
2023-01-31T09:38:46.177Z,5.90
2023-01-31T09:41:39.876Z,5.89
2023-01-31T09:44:29.756Z,5.94
2023-01-31T09:47:17.029Z,6.16
2023-01-31T09:49:56.190Z,6.19
2023-01-31T09:52:23.705Z,6.20
2023-01-31T09:54:50.864Z,6.23
2023-01-31T09:57:31.939Z,6.27
2023-01-31T10:00:37.117Z,6.42
2023-01-31T10:03:57.442Z,6.49
2023-01-31T10:06:38.922Z,6.42
2023-01-31T10:09:11.415Z,6.47
2023-01-31T10:11:51.804Z,6.48
2023-01-31T10:14:41.060Z,6.43
2023-01-31T10:17:57.958Z,6.58
2023-01-31T10:20:48.336Z,6.55
2023-01-31T10:23:29.272Z,6.46
2023-01-31T10:26:10.605Z,6.53
2023-01-31T10:28:50.888Z,6.74
2023-01-31T10:31:37.301Z,6.74
2023-01-31T10:34:39.017Z,6.80
2023-01-31T10:37:19.975Z,6.86
2023-01-31T10:40:21.207Z,6.85
2023-01-31T10:43:16.877Z,7.00
2023-01-31T10:45:44.294Z,7.14
2023-01-31T10:48:19.712Z,7.33
2023-01-31T10:51:26.794Z,7.49
2023-01-31T10:53:59.365Z,7.76
2023-01-31T10:56:48.037Z,7.99
2023-01-31T10:59:31.582Z,7.92
2023-01-31T11:01:59.476Z,7.92
2023-01-31T11:04:40.493Z,7.90
2023-01-31T11:07:08.927Z,7.90
2023-01-31T11:09:42.987Z,7.95
2023-01-31T11:12:10.145Z,7.97
2023-01-31T11:14:40.246Z,7.95
2023-01-31T11:17:18.808Z,7.69
2023-01-31T11:19:54.251Z,7.56
2023-01-31T11:22:40.089Z,7.52
2023-01-31T11:25:07.804Z,7.47
2023-01-31T11:27:43.931Z,7.57
2023-01-31T11:30:35.110Z,7.40
2023-01-31T11:33:02.855Z,7.33
2023-01-31T11:35:33.129Z,7.33
2023-01-31T11:38:02.553Z,7.20
2023-01-31T11:40:40.518Z,7.18
2023-01-31T11:43:30.885Z,7.01
2023-01-31T11:46:03.455Z,6.98
2023-01-31T11:48:44.585Z,7.09
2023-01-31T11:51:30.918Z,7.17
2023-01-31T11:53:58.221Z,7.28
2023-01-31T11:56:34.539Z,7.37
2023-01-31T11:59:07.600Z,7.24
2023-01-31T12:01:44.288Z,7.33
2023-01-31T12:04:20.272Z,7.49
2023-01-31T12:07:30.484Z,7.63
2023-01-31T12:09:57.553Z,7.86
2023-01-31T12:12:34.087Z,7.82
2023-01-31T12:15:06.006Z,7.64
2023-01-31T12:17:41.499Z,7.88
2023-01-31T12:20:39.685Z,8.02
2023-01-31T12:23:39.922Z,7.98
2023-01-31T12:26:30.889Z,7.83
2023-01-31T12:29:03.010Z,7.79
2023-01-31T12:31:51.727Z,7.83
2023-01-31T12:34:59.517Z,7.80
2023-01-31T12:37:56.387Z,7.69
2023-01-31T12:40:47.172Z,7.54
2023-01-31T12:43:51.645Z,7.58
2023-01-31T12:46:40.838Z,7.58
2023-01-31T12:49:25.927Z,7.38
2023-01-31T12:52:32.476Z,7.30
2023-01-31T12:55:36.774Z,7.41
2023-01-31T12:59:14.748Z,7.34
2023-01-31T13:02:24.198Z,7.26
2023-01-31T13:05:19.190Z,7.32
2023-01-31T13:07:54.491Z,7.08
2023-01-31T13:11:00.816Z,6.88
2023-01-31T13:14:05.348Z,6.81
2023-01-31T13:16:40.214Z,6.81
2023-01-31T13:19:29.833Z,6.89
2023-01-31T13:22:02.117Z,6.77
2023-01-31T13:24:45.062Z,6.83
2023-01-31T13:27:16.881Z,6.92
2023-01-31T13:29:52.635Z,7.10
2023-01-31T13:32:44.151Z,6.90
2023-01-31T13:35:54.957Z,6.81
2023-01-31T13:38:24.630Z,6.86
2023-01-31T13:40:56.798Z,6.88
2023-01-31T13:43:23.909Z,6.78
2023-01-31T13:46:05.514Z,6.72
2023-01-31T13:48:59.466Z,6.70
2023-01-31T13:51:52.831Z,6.47
2023-01-31T13:54:35.444Z,6.62
2023-01-31T13:57:03.961Z,6.55
2023-01-31T13:59:37.903Z,6.47
2023-01-31T14:02:17.422Z,6.46
2023-01-31T14:04:47.184Z,6.42
2023-01-31T14:07:21.610Z,6.53
2023-01-31T14:09:51.463Z,6.39
2023-01-31T14:12:18.399Z,6.36
2023-01-31T14:14:51.387Z,6.20
2023-01-31T14:17:24.146Z,6.19
2023-01-31T14:19:51.081Z,6.21
2023-01-31T14:22:35.152Z,6.04
2023-01-31T14:25:09.290Z,6.03
2023-01-31T14:28:03.608Z,6.00
2023-01-31T14:30:34.919Z,6.07
2023-01-31T14:33:13.910Z,5.95
2023-01-31T14:35:52.222Z,5.99
2023-01-31T14:38:51.691Z,5.90
2023-01-31T14:41:21.394Z,5.90
2023-01-31T14:44:30.406Z,5.82
2023-01-31T14:47:16.369Z,5.76
2023-01-31T14:50:31.375Z,5.75
2023-01-31T14:53:21.980Z,5.76
2023-01-31T14:56:51.478Z,5.65
2023-01-31T14:59:36.165Z,5.74
2023-01-31T15:02:22.327Z,5.60
2023-01-31T15:05:06.456Z,5.58
2023-01-31T15:07:34.180Z,5.62
2023-01-31T15:10:02.323Z,5.61
2023-01-31T15:12:57.214Z,5.69
2023-01-31T15:15:39.844Z,5.58
2023-01-31T15:18:22.151Z,5.51
2023-01-31T15:20:57.710Z,5.50
2023-01-31T15:23:30.233Z,5.51
2023-01-31T15:25:59.995Z,5.37
2023-01-31T15:28:33.919Z,5.38
2023-01-31T15:31:07.589Z,5.38
2023-01-31T15:33:57.649Z,5.30
2023-01-31T15:36:45.977Z,5.21
2023-01-31T15:39:29.448Z,5.21
2023-01-31T15:41:56.694Z,5.22
2023-01-31T15:44:29.257Z,5.16
2023-01-31T15:47:03.561Z,5.17
2023-01-31T15:49:39.889Z,5.16
2023-01-31T15:52:34.815Z,5.09
2023-01-31T15:55:06.700Z,4.95
2023-01-31T15:57:57.816Z,5.02
2023-01-31T16:00:36.535Z,4.96
2023-01-31T16:03:08.079Z,4.97
2023-01-31T16:05:40.314Z,5.03
2023-01-31T16:08:37.962Z,4.93
2023-01-31T16:11:11.250Z,4.90
2023-01-31T16:13:41.280Z,4.81
2023-01-31T16:16:10.735Z,4.76
2023-01-31T16:18:38.632Z,4.78
2023-01-31T16:21:34.225Z,4.73
2023-01-31T16:24:13.316Z,4.67
2023-01-31T16:27:09.202Z,4.62
2023-01-31T16:29:43.721Z,4.62
2023-01-31T16:32:27.357Z,4.62
2023-01-31T16:35:07.740Z,4.59
2023-01-31T16:37:41.655Z,4.59
2023-01-31T16:40:17.194Z,4.52
2023-01-31T16:42:44.488Z,4.49
2023-01-31T16:45:34.101Z,4.52
2023-01-31T16:48:33.091Z,4.51
2023-01-31T16:51:30.315Z,4.44
2023-01-31T16:54:24.659Z,4.48
2023-01-31T16:57:05.663Z,4.44
2023-01-31T16:59:37.595Z,4.40
2023-01-31T17:02:26.552Z,4.41
2023-01-31T17:04:58.114Z,4.43
2023-01-31T17:07:32.864Z,4.39
2023-01-31T17:10:06.063Z,4.41
2023-01-31T17:12:38.501Z,4.44
2023-01-31T17:15:25.984Z,4.32
2023-01-31T17:17:53.345Z,4.30
2023-01-31T17:20:21.818Z,4.35
2023-01-31T17:23:00.865Z,4.38
2023-01-31T17:25:34.801Z,4.34
2023-01-31T17:28:02.551Z,4.37
2023-01-31T17:30:31.449Z,4.36
2023-01-31T17:33:00.386Z,4.33
2023-01-31T17:35:38.744Z,4.35
2023-01-31T17:38:06.076Z,4.24
2023-01-31T17:40:33.537Z,4.30
2023-01-31T17:43:04.050Z,4.27
2023-01-31T17:45:32.561Z,4.21
2023-01-31T17:47:59.666Z,4.14
2023-01-31T17:50:29.185Z,4.21
2023-01-31T17:52:57.033Z,4.23
2023-01-31T17:55:25.151Z,4.15
2023-01-31T17:57:52.630Z,4.21
2023-01-31T18:00:21.145Z,4.08
2023-01-31T18:02:48.329Z,4.16
2023-01-31T18:05:24.575Z,4.17
2023-01-31T18:07:59.152Z,4.25
2023-01-31T18:10:26.329Z,4.18
2023-01-31T18:12:53.418Z,4.21
2023-01-31T18:15:20.728Z,4.22
2023-01-31T18:17:47.914Z,4.16
2023-01-31T18:20:15.042Z,4.14
2023-01-31T18:22:42.064Z,4.18
2023-01-31T18:25:09.148Z,4.17
2023-01-31T18:27:36.232Z,4.11
2023-01-31T18:30:05.713Z,4.08
2023-01-31T18:32:35.984Z,4.11
2023-01-31T18:35:03.131Z,4.13
2023-01-31T18:37:31.155Z,4.00
2023-01-31T18:39:58.190Z,4.11
2023-01-31T18:42:25.331Z,4.10
2023-01-31T18:44:52.463Z,4.15
2023-01-31T18:47:19.458Z,4.08
2023-01-31T18:49:46.495Z,4.03
2023-01-31T18:52:13.609Z,4.06
2023-01-31T18:54:41.420Z,4.13
2023-01-31T18:57:08.660Z,4.17
2023-01-31T18:59:35.835Z,4.03
2023-01-31T19:02:03.058Z,4.05
2023-01-31T19:04:30.218Z,4.09
2023-01-31T19:06:57.479Z,4.05
2023-01-31T19:09:24.702Z,4.08
2023-01-31T19:11:51.754Z,4.10
2023-01-31T19:14:19.197Z,4.08
2023-01-31T19:16:46.369Z,4.05
2023-01-31T19:19:13.520Z,3.98
2023-01-31T19:21:41.165Z,3.94
2023-01-31T19:24:12.565Z,4.01
2023-01-31T19:26:39.893Z,3.98
2023-01-31T19:29:09.688Z,4.04
2023-01-31T19:31:37.075Z,3.96
2023-01-31T19:34:06.966Z,3.97
2023-01-31T19:36:39.936Z,3.97
2023-01-31T19:39:11.354Z,3.97
2023-01-31T19:41:38.872Z,4.04
2023-01-31T19:44:06.126Z,4.05
2023-01-31T19:46:35.856Z,4.02
2023-01-31T19:49:03.585Z,4.00
2023-01-31T19:51:31.208Z,3.86
2023-01-31T19:54:03.902Z,3.80
2023-01-31T19:56:32.540Z,3.86
2023-01-31T19:59:00.407Z,3.80
2023-01-31T20:01:27.576Z,3.94
2023-01-31T20:03:55.425Z,3.95
2023-01-31T20:06:26.034Z,3.92
2023-01-31T20:08:59.170Z,3.88
2023-01-31T20:11:28.971Z,3.85
2023-01-31T20:14:00.474Z,3.89
2023-01-31T20:16:27.617Z,3.88
2023-01-31T20:18:56.253Z,3.98
2023-01-31T20:21:23.785Z,3.84
2023-01-31T20:23:50.901Z,3.93
2023-01-31T20:26:19.554Z,3.89
2023-01-31T20:28:46.732Z,4.02
2023-01-31T20:31:15.543Z,3.96
2023-01-31T20:33:43.129Z,3.97
2023-01-31T20:36:11.224Z,3.91
2023-01-31T20:38:39.069Z,3.93
2023-01-31T20:41:08.516Z,3.85
2023-01-31T20:43:36.581Z,3.85
2023-01-31T20:46:06.415Z,3.79
2023-01-31T20:48:33.577Z,3.78
2023-01-31T20:51:01.042Z,3.91
2023-01-31T20:53:31.882Z,3.87
2023-01-31T20:56:09.566Z,3.84
2023-01-31T20:58:39.905Z,3.74
2023-01-31T21:01:08.369Z,3.81
2023-01-31T21:03:36.650Z,3.83
2023-01-31T21:06:05.473Z,3.82
2023-01-31T21:08:35.404Z,3.85
2023-01-31T21:11:08.410Z,3.79
2023-01-31T21:13:36.128Z,3.78
2023-01-31T21:16:06.860Z,3.73
2023-01-31T21:18:37.489Z,3.92
2023-01-31T21:21:11.375Z,3.87
2023-01-31T21:23:40.682Z,3.96
2023-01-31T21:26:10.905Z,3.95
2023-01-31T21:28:40.095Z,3.94
2023-01-31T21:31:12.548Z,3.95
2023-01-31T21:33:39.758Z,3.97
2023-01-31T21:36:12.846Z,3.85
2023-01-31T21:38:41.117Z,3.94
2023-01-31T21:41:33.867Z,3.94
2023-01-31T21:44:00.981Z,3.92
2023-01-31T21:46:28.506Z,3.95
2023-01-31T21:48:55.659Z,3.80
2023-01-31T21:51:25.330Z,3.86
2023-01-31T21:53:53.769Z,3.92
2023-01-31T21:56:25.113Z,3.87
2023-01-31T21:58:56.978Z,3.83
2023-01-31T22:01:33.794Z,3.89
2023-01-31T22:04:01.514Z,3.75
2023-01-31T22:06:42.709Z,3.72
2023-01-31T22:09:13.643Z,3.70
2023-01-31T22:11:40.830Z,3.68
2023-01-31T22:14:12.460Z,3.68
2023-01-31T22:16:40.600Z,3.69
2023-01-31T22:19:08.285Z,3.71
2023-01-31T22:21:37.400Z,3.70
2023-01-31T22:24:07.894Z,3.65
2023-01-31T22:26:42.080Z,3.53
2023-01-31T22:29:12.868Z,3.55
2023-01-31T22:31:40.131Z,3.44
2023-01-31T22:34:15.531Z,3.52
2023-01-31T22:36:42.672Z,3.63
2023-01-31T22:39:13.337Z,3.46
2023-01-31T22:41:40.469Z,3.54
2023-01-31T22:44:07.529Z,3.54
2023-01-31T22:46:34.680Z,3.67
2023-01-31T22:49:01.862Z,3.58
2023-01-31T22:51:29.829Z,3.64
2023-01-31T22:53:58.432Z,3.64
2023-01-31T22:56:32.179Z,3.59
2023-01-31T22:59:02.693Z,3.68
2023-01-31T23:01:35.031Z,3.63
2023-01-31T23:04:05.336Z,3.67
2023-01-31T23:06:32.817Z,3.67
2023-01-31T23:08:59.941Z,3.73
2023-01-31T23:11:27.488Z,3.68
2023-01-31T23:13:54.797Z,3.66
2023-01-31T23:16:45.237Z,3.80
2023-01-31T23:19:12.649Z,3.81
2023-01-31T23:21:44.325Z,3.79
2023-01-31T23:24:14.532Z,3.71
2023-01-31T23:26:42.071Z,3.72
2023-01-31T23:29:09.190Z,3.76
2023-01-31T23:31:36.802Z,3.87
2023-01-31T23:34:06.085Z,3.85
2023-01-31T23:36:33.205Z,3.81
2023-01-31T23:39:00.479Z,3.79
2023-01-31T23:41:27.546Z,3.94
2023-01-31T23:43:54.637Z,3.87
2023-01-31T23:46:21.731Z,3.90
2023-01-31T23:48:48.777Z,4.04
2023-01-31T23:51:15.804Z,4.00
2023-01-31T23:53:42.868Z,4.12
2023-01-31T23:56:09.886Z,4.07
2023-01-31T23:58:36.913Z,4.08
